• Join FlightAware (Why Join?)
  • Login
  • US Flag 
10:57PM EDT


 

Airport Tracker/Info


-or-


 

Live Flight TrackerFlight Track Log ✈ GLA61C ✈ 19-Apr-2013 ✈ KCEZ - KDEN

Flight Track Log - Related Links

Times and Time Zones

All times are in EDT time to prevent confusion due to time zone crossing. See the GLA61C flight status page for this flight to view local times or setup timezone preferences in your user account.

Time Position Orientation Groundspeed Altitude Reporting Facility
EDT Latitude Longitude Course Direction KTS MPH feet Rate Location/Type
07:59AM 37.3408 -108.5942 48° Northeast 149 171 8,700  Level Denver Center
08:00AM 37.3800 -108.5586 36° Northeast 153 176 11,000 2,100 Climbing Denver Center
08:01AM 37.5331 -108.2980 46° Northeast  Level FlightAware Approximate
08:01AM 37.4100 -108.5122 51° Northeast 164 189 13,000  Level Denver Center
08:02AM 37.5813 -108.2359 46° Northeast  Level FlightAware Approximate
08:02AM 37.4469 -108.4714 41° Northeast 176 203 14,600  Level Denver Center
08:03AM 37.6279 -108.1718 48° Northeast  Level FlightAware Approximate
08:03AM 37.4856 -108.4278 42° Northeast 187 215 16,200  Level Denver Center
08:04AM 37.6744 -108.1076 48° Northeast  Level FlightAware Approximate
08:04AM 37.5258 -108.3675 50° Northeast 195 224 17,900  Level Denver Center
08:05AM 37.5633 -108.3147 48° Northeast 204 235 18,900 1,020 Climbing Denver Center
08:06AM 37.5978 -108.2592 52° Northeast 209 241 20,000 1,140 Climbing Denver Center
08:07AM 37.6414 -108.1914 51° Northeast 218 251 21,200 1,080 Climbing Denver Center
08:08AM 37.6789 -108.1372 49° Northeast 217 250 22,200 840 Climbing Denver Center
08:09AM 37.7178 -108.0869 46° Northeast 211 243 22,900 780 Climbing Denver Center
08:10AM 37.7611 -108.0186 51° Northeast 219 252 23,800 780 Climbing Denver Center
08:11AM 37.7986 -107.9678 47° Northeast 210 242 24,500 540 Climbing Denver Center
08:12AM 37.8364 -107.9125 49° Northeast 215 247 25,000 240 Climbing Denver Center
08:13AM 37.8739 -107.8514 52° Northeast 225 259 25,000  Level Denver Center
08:14AM 37.9178 -107.7786 53° Northeast 232 267 25,000  Level Denver Center
08:15AM 37.9594 -107.7211 47° Northeast 232 267 25,000  Level Denver Center
08:16AM 38.0039 -107.6689 43° Northeast 230 265 25,000  Level Denver Center
08:17AM 38.0561 -107.6067 43° Northeast 230 265 25,000  Level Denver Center
08:18AM 38.0958 -107.5514 48° Northeast 232 267 25,000  Level Denver Center
08:19AM 38.1456 -107.4781 49° Northeast 243 280 25,000  Level Denver Center
08:20AM 38.1875 -107.4172 49° Northeast 242 278 25,000  Level Denver Center
08:21AM 38.2317 -107.3586 46° Northeast 241 277 25,000  Level Denver Center
08:22AM 38.2831 -107.2875 47° Northeast 244 281 25,000  Level Denver Center
08:23AM 38.3233 -107.2239 51° Northeast 241 277 25,000  Level Denver Center
08:24AM 38.3661 -107.1528 52° Northeast 244 281 25,000  Level Denver Center
08:25AM 38.4161 -107.0961 42° Northeast 240 276 25,000  Level Denver Center
08:26AM 38.4561 -107.0283 53° Northeast 240 276 25,000  Level Denver Center
08:27AM 38.4803 -106.9406 71° East 258 297 25,000  Level Denver Center
08:28AM 38.5114 -106.8597 64° Northeast 255 293 25,000  Level Denver Center
08:29AM 38.5406 -106.7758 66° East 253 291 25,000  Level Denver Center
08:30AM 38.5625 -106.6914 72° East 256 295 25,000  Level Denver Center
08:31AM 38.5881 -106.6056 69° East 259 298 25,000  Level Denver Center
08:32AM 38.6147 -106.5228 68° East 254 292 25,000  Level Denver Center
08:33AM 38.6383 -106.4364 71° East 258 297 25,000  Level Denver Center
08:34AM 38.6642 -106.3500 69° East 260 299 25,000  Level Denver Center
08:35AM 38.6917 -106.2667 67° East 255 293 25,000  Level Denver Center
08:36AM 38.7200 -106.1833 66° East 256 295 25,100  Climbing Denver Center
08:37AM 38.7636 -106.0753 63° Northeast 252 290 25,000 -120 Descending Denver Center
08:38AM 38.7989 -105.9983 60° Northeast 257 296 24,900  Descending Denver Center
08:40AM 38.8361 -105.9286 56° Northeast 250 288 25,000 -300 Climbing Denver Center
08:41AM 38.8853 -105.8519 51° Northeast 248 285 24,400 -840 Descending Denver Center
08:42AM 38.9386 -105.7794 47° Northeast 249 287 23,200 -1,080 Descending Denver Center
08:43AM 38.9911 -105.7008 49° Northeast 258 297 22,000 -1,140 Descending Denver Center
08:44AM 39.0322 -105.6283 54° Northeast 262 302 21,000 -1,020 Descending Denver Center
08:45AM 39.0736 -105.5536 54° Northeast 266 306 20,000 -1,200 Descending Denver Center
08:46AM 39.1206 -105.4789 51° Northeast 257 296 18,600 -1,500 Descending Denver Center
08:47AM 39.1719 -105.4131 45° Northeast 255 293 17,000 -1,440 Descending Denver Center
08:48AM 39.2194 -105.3431 49° Northeast 258 297 15,800 -1,260 Descending Denver Center
08:49AM 39.2747 -105.2719 45° Northeast 260 299 14,500 -900 Descending Denver Center
08:50AM 39.3228 -105.2022 48° Northeast 261 300 14,000 -300 Descending Denver Center
08:51AM 39.3706 -105.1372 46° Northeast 251 289 14,000 -300 Level Denver Center
08:52AM 39.4228 -105.0725 44° Northeast 263 303 13,400 -540 Descending Denver Center
08:53AM 39.4817 -105.0081 40° Northeast 275 316 13,000 -240 Descending Denver Center
08:54AM 39.5450 -104.9425 39° Northeast 270 311 13,000  Level Denver Center
08:55AM 39.6069 -104.8872 35° Northeast 270 311 13,000  Level Denver Center
08:56AM 39.6667 -104.8300 36° Northeast 272 313 13,000 -300 Level Denver Center
08:57AM 39.7211 -104.7617 44° Northeast 274 315 12,500 -780 Descending Denver Center
08:58AM 39.7617 -104.6814 57° Northeast 287 330 11,500 -780 Descending Denver Center
08:59AM 39.7569 -104.5894 94° East 222 255 11,000 -540 Descending Denver Center
09:00AM 39.7631 -104.5181 84° East 201 231 10,500 -960 Descending Denver Center
09:01AM 39.8017 -104.4703 44° Northeast 193 222 9,100 -1,380 Descending Denver Center
09:02AM 39.8525 -104.4589 10° North 189 217 7,800 -1,080 Descending Denver Center
09:03AM 39.8833 -104.5000 314° West 164 189 7,100 -840 Descending Denver TRACON
09:04AM 39.8833 -104.5667 270° West 159 183 6,300 -900 Descending Denver TRACON
09:05AM 39.8833 -104.6167 270° West 134 154 5,500 -480 Descending Denver TRACON
09:06AM 39.8775 -104.6489 257° West 115 132 5,300 -180 Descending Denver Center
09:08AM 39.8617 -104.6732 327° Northwest  Level Estimated
09:15AM 39.8617 -104.6732 327° Northwest  Level Estimated
09:16AM 39.8617 -104.6732 327° Northwest  Level Estimated